sensor_id;sensor_type;location;lat;lon;timestamp;pressure;altitude;pressure_sealevel;temperature;humidity
7832;BME280;3961;42.058;25.586;2023-03-04T00:01:41;62686.38;;;4.26;100.00
7832;BME280;3961;42.058;25.586;2023-03-04T00:04:07;62685.56;;;4.23;100.00
7832;BME280;3961;42.058;25.586;2023-03-04T00:06:32;62697.28;;;4.35;100.00
7832;BME280;3961;42.058;25.586;2023-03-04T00:08:58;62726.84;;;4.59;100.00
7832;BME280;3961;42.058;25.586;2023-03-04T00:11:23;62684.44;;;4.22;100.00
7832;BME280;3961;42.058;25.586;2023-03-04T00:13:49;62672.31;;;4.16;100.00
7832;BME280;3961;42.058;25.586;2023-03-04T00:16:15;62697.03;;;4.33;100.00
7832;BME280;3961;42.058;25.586;2023-03-04T00:18:40;62689.81;;;4.29;100.00
7832;BME280;3961;42.058;25.586;2023-03-04T00:21:06;62678.94;;;4.19;100.00
7832;BME280;3961;42.058;25.586;2023-03-04T00:23:31;62667.22;;;4.07;100.00
7832;BME280;3961;42.058;25.586;2023-03-04T00:25:57;62692.69;;;4.31;100.00
7832;BME280;3961;42.058;25.586;2023-03-04T00:28:22;62684.09;;;4.24;100.00
7832;BME280;3961;42.058;25.586;2023-03-04T00:30:48;62690.63;;;4.32;100.00
7832;BME280;3961;42.058;25.586;2023-03-04T00:33:13;62687.28;;;4.24;100.00
7832;BME280;3961;42.058;25.586;2023-03-04T00:35:39;62670.09;;;4.09;100.00
7832;BME280;3961;42.058;25.586;2023-03-04T00:38:04;62672.41;;;4.11;100.00
7832;BME280;3961;42.058;25.586;2023-03-04T00:40:30;62678.94;;;4.19;100.00
7832;BME280;3961;42.058;25.586;2023-03-04T00:42:55;62646.13;;;3.83;100.00
7832;BME280;3961;42.058;25.586;2023-03-04T00:45:21;62679.84;;;4.18;100.00
7832;BME280;3961;42.058;25.586;2023-03-04T00:47:46;62703.69;;;4.36;100.00
7832;BME280;3961;42.058;25.586;2023-03-04T00:50:12;62687.88;;;4.25;100.00
7832;BME280;3961;42.058;25.586;2023-03-04T00:52:37;62688.75;;;4.23;100.00
7832;BME280;3961;42.058;25.586;2023-03-04T00:55:03;62673.31;;;4.10;100.00
7832;BME280;3961;42.058;25.586;2023-03-04T00:57:29;62679.53;;;4.20;100.00
7832;BME280;3961;42.058;25.586;2023-03-04T00:59:54;62680.88;;;4.23;100.00
7832;BME280;3961;42.058;25.586;2023-03-04T01:02:20;62682.72;;;4.20;100.00
7832;BME280;3961;42.058;25.586;2023-03-04T01:04:45;62689.00;;;4.26;100.00
7832;BME280;3961;42.058;25.586;2023-03-04T01:07:11;62684.66;;;4.24;100.00
7832;BME280;3961;42.058;25.586;2023-03-04T01:09:36;62687.88;;;4.25;100.00
7832;BME280;3961;42.058;25.586;2023-03-04T01:12:02;62661.16;;;4.03;100.00
7832;BME280;3961;42.058;25.586;2023-03-04T01:14:27;62652.81;;;3.98;100.00
7832;BME280;3961;42.058;25.586;2023-03-04T01:16:53;62671.50;;;4.13;100.00
7832;BME280;3961;42.058;25.586;2023-03-04T01:19:18;62673.31;;;4.10;100.00
7832;BME280;3961;42.058;25.586;2023-03-04T01:21:44;62646.38;;;3.86;100.00
7832;BME280;3961;42.058;25.586;2023-03-04T01:24:09;62663.22;;;4.03;100.00
7832;BME280;3961;42.058;25.586;2023-03-04T01:26:35;62637.69;;;3.83;100.00
7832;BME280;3961;42.058;25.586;2023-03-04T01:29:01;62637.94;;;3.85;100.00
7832;BME280;3961;42.058;25.586;2023-03-04T01:31:27;62655.44;;;3.98;100.00
7832;BME280;3961;42.058;25.586;2023-03-04T01:33:52;62664.03;;;4.06;100.00
7832;BME280;3961;42.058;25.586;2023-03-04T01:36:18;62647.97;;;3.92;100.00
7832;BME280;3961;42.058;25.586;2023-03-04T01:38:43;62651.41;;;3.95;100.00
7832;BME280;3961;42.058;25.586;2023-03-04T01:41:10;62649.69;;;3.93;100.00
7832;BME280;3961;42.058;25.586;2023-03-04T01:43:36;62657.50;;;3.98;100.00
7832;BME280;3961;42.058;25.586;2023-03-04T01:46:02;62646.84;;;3.91;100.00
7832;BME280;3961;42.058;25.586;2023-03-04T01:48:36;62623.94;;;3.70;100.00
7832;BME280;3961;42.058;25.586;2023-03-04T01:51:03;62628.84;;;3.72;100.00
7832;BME280;3961;42.058;25.586;2023-03-04T01:53:30;62654.03;;;3.95;100.00
7832;BME280;3961;42.058;25.586;2023-03-04T01:56:01;62651.19;;;3.92;100.00
7832;BME280;3961;42.058;25.586;2023-03-04T01:58:30;62650.84;;;3.94;100.00
7832;BME280;3961;42.058;25.586;2023-03-04T02:00:57;62632.53;;;3.78;100.00
7832;BME280;3961;42.058;25.586;2023-03-04T02:03:23;62638.59;;;3.81;100.00
7832;BME280;3961;42.058;25.586;2023-03-04T02:05:51;62616.47;;;3.64;100.00
7832;BME280;3961;42.058;25.586;2023-03-04T02:08:19;62662.56;;;4.07;100.00
7832;BME280;3961;42.058;25.586;2023-03-04T02:10:46;62664.28;;;4.09;100.00
7832;BME280;3961;42.058;25.586;2023-03-04T02:13:12;62680.75;;;4.16;100.00
7832;BME280;3961;42.058;25.586;2023-03-04T02:15:38;62682.72;;;4.20;100.00
7832;BME280;3961;42.058;25.586;2023-03-04T02:18:19;62669.53;;;4.09;100.00
7832;BME280;3961;42.058;25.586;2023-03-04T02:21:08;62635.16;;;3.78;100.00
7832;BME280;3961;42.058;25.586;2023-03-04T02:26:17;62645.78;;;3.85;100.00
7832;BME280;3961;42.058;25.586;2023-03-04T02:28:44;62630.56;;;3.74;100.00
7832;BME280;3961;42.058;25.586;2023-03-04T02:31:27;62633.34;;;3.81;100.00
7832;BME280;3961;42.058;25.586;2023-03-04T02:33:56;62631.72;;;3.75;100.00
7832;BME280;3961;42.058;25.586;2023-03-04T02:36:22;62629.66;;;3.76;100.00
7832;BME280;3961;42.058;25.586;2023-03-04T02:38:51;62629.16;;;3.70;100.00
7832;BME280;3961;42.058;25.586;2023-03-04T02:41:20;62622.22;;;3.69;100.00
7832;BME280;3961;42.058;25.586;2023-03-04T02:43:50;62651.19;;;3.92;100.00
7832;BME280;3961;42.058;25.586;2023-03-04T02:46:16;62607.31;;;3.56;100.00
7832;BME280;3961;42.058;25.586;2023-03-04T02:48:42;62626.53;;;3.70;100.00
7832;BME280;3961;42.058;25.586;2023-03-04T02:51:08;62625.97;;;3.70;100.00
7832;BME280;3961;42.058;25.586;2023-03-04T02:53:33;62624.81;;;3.69;100.00
7832;BME280;3961;42.058;25.586;2023-03-04T02:55:59;62593.31;;;3.41;100.00
7832;BME280;3961;42.058;25.586;2023-03-04T02:58:24;62593.91;;;3.42;100.00
7832;BME280;3961;42.058;25.586;2023-03-04T03:00:50;62631.38;;;3.77;100.00
7832;BME280;3961;42.058;25.586;2023-03-04T03:03:16;62618.75;;;3.66;100.00
7832;BME280;3961;42.058;25.586;2023-03-04T03:05:41;62645.47;;;3.87;100.00
7832;BME280;3961;42.058;25.586;2023-03-04T03:08:07;62672.06;;;4.13;100.00
7832;BME280;3961;42.058;25.586;2023-03-04T03:10:33;62670.69;;;4.10;100.00
7832;BME280;3961;42.058;25.586;2023-03-04T03:12:58;62675.84;;;4.14;100.00
7832;BME280;3961;42.058;25.586;2023-03-04T03:15:24;62682.16;;;4.20;100.00
7832;BME280;3961;42.058;25.586;2023-03-04T03:17:50;62681.31;;;4.17;100.00
7832;BME280;3961;42.058;25.586;2023-03-04T03:20:16;62683.88;;;4.21;100.00
7832;BME280;3961;42.058;25.586;2023-03-04T03:22:42;62671.97;;;4.18;100.00
7832;BME280;3961;42.058;25.586;2023-03-04T03:25:09;62665.19;;;4.07;100.00
7832;BME280;3961;42.058;25.586;2023-03-04T03:27:35;62656.00;;;3.99;100.00
7832;BME280;3961;42.058;25.586;2023-03-04T03:30:00;62671.50;;;4.13;100.00
7832;BME280;3961;42.058;25.586;2023-03-04T03:32:26;62682.38;;;4.22;100.00
7832;BME280;3961;42.058;25.586;2023-03-04T03:34:51;62696.13;;;4.34;100.00
7832;BME280;3961;42.058;25.586;2023-03-04T03:37:17;62703.59;;;4.41;100.00
7832;BME280;3961;42.058;25.586;2023-03-04T03:39:42;62689.91;;;4.24;100.00
7832;BME280;3961;42.058;25.586;2023-03-04T03:42:08;62693.03;;;4.29;100.00
7832;BME280;3961;42.058;25.586;2023-03-04T03:44:33;62699.09;;;4.32;100.00
7832;BME280;3961;42.058;25.586;2023-03-04T03:46:59;62688.09;;;4.27;100.00
7832;BME280;3961;42.058;25.586;2023-03-04T03:49:24;62686.38;;;4.26;100.00
7832;BME280;3961;42.058;25.586;2023-03-04T03:51:50;62661.50;;;4.01;100.00
7832;BME280;3961;42.058;25.586;2023-03-04T03:54:15;62658.06;;;3.98;100.00
7832;BME280;3961;42.058;25.586;2023-03-04T03:56:41;62658.88;;;4.01;100.00
7832;BME280;3961;42.058;25.586;2023-03-04T03:59:06;62635.72;;;3.79;100.00
7832;BME280;3961;42.058;25.586;2023-03-04T04:01:32;62647.75;;;3.89;100.00
7832;BME280;3961;42.058;25.586;2023-03-04T04:03:58;62639.72;;;3.82;100.00
7832;BME280;3961;42.058;25.586;2023-03-04T04:06:24;62646.94;;;3.86;100.00
7832;BME280;3961;42.058;25.586;2023-03-04T04:08:50;62620.81;;;3.65;100.00
7832;BME280;3961;42.058;25.586;2023-03-04T04:11:15;62613.59;;;3.61;100.00
7832;BME280;3961;42.058;25.586;2023-03-04T04:13:41;62603.88;;;3.53;100.00
7832;BME280;3961;42.058;25.586;2023-03-04T04:16:07;62600.44;;;3.50;100.00
7832;BME280;3961;42.058;25.586;2023-03-04T04:18:33;62592.44;;;3.43;100.00
7832;BME280;3961;42.058;25.586;2023-03-04T04:20:59;62589.56;;;3.40;100.00
7832;BME280;3961;42.058;25.586;2023-03-04T04:23:24;62603.97;;;3.48;100.00
7832;BME280;3961;42.058;25.586;2023-03-04T04:25:50;62589.47;;;3.45;100.00
7832;BME280;3961;42.058;25.586;2023-03-04T04:28:15;62590.47;;;3.38;100.00
7832;BME280;3961;42.058;25.586;2023-03-04T04:30:41;62613.38;;;3.59;100.00
7832;BME280;3961;42.058;25.586;2023-03-04T04:33:07;62614.19;;;3.62;100.00
7832;BME280;3961;42.058;25.586;2023-03-04T04:35:34;62635.63;;;3.83;100.00
7832;BME280;3961;42.058;25.586;2023-03-04T04:38:00;62635.16;;;3.78;100.00
7832;BME280;3961;42.058;25.586;2023-03-04T04:40:26;62656.91;;;3.97;100.00
7832;BME280;3961;42.058;25.586;2023-03-04T04:42:51;62666.34;;;4.08;100.00
7832;BME280;3961;42.058;25.586;2023-03-04T04:45:17;62637.94;;;3.85;100.00
7832;BME280;3961;42.058;25.586;2023-03-04T04:47:43;62670.69;;;4.10;100.00
7832;BME280;3961;42.058;25.586;2023-03-04T04:50:09;62688.75;;;4.23;100.00
7832;BME280;3961;42.058;25.586;2023-03-04T04:52:34;62688.75;;;4.23;100.00
7832;BME280;3961;42.058;25.586;2023-03-04T04:55:01;62663.72;;;4.08;100.00
7832;BME280;3961;42.058;25.586;2023-03-04T04:57:26;62676.97;;;4.15;100.00
7832;BME280;3961;42.058;25.586;2023-03-04T04:59:51;62635.38;;;3.81;100.00
7832;BME280;3961;42.058;25.586;2023-03-04T05:02:17;62639.41;;;3.84;100.00
7832;BME280;3961;42.058;25.586;2023-03-04T05:04:42;62605.94;;;3.52;100.00
7832;BME280;3961;42.058;25.586;2023-03-04T05:07:08;62628.59;;;3.70;100.00
7832;BME280;3961;42.058;25.586;2023-03-04T05:09:34;62637.69;;;3.83;100.00
7832;BME280;3961;42.058;25.586;2023-03-04T05:11:59;62631.63;;;3.80;100.00
7832;BME280;3961;42.058;25.586;2023-03-04T05:14:25;62618.75;;;3.66;100.00
7832;BME280;3961;42.058;25.586;2023-03-04T05:16:50;62600.53;;;3.45;100.00
7832;BME280;3961;42.058;25.586;2023-03-04T05:19:18;62582.69;;;3.34;100.00
7832;BME280;3961;42.058;25.586;2023-03-04T05:21:43;62618.19;;;3.65;100.00
7832;BME280;3961;42.058;25.586;2023-03-04T05:24:09;62648.09;;;3.87;100.00
7832;BME280;3961;42.058;25.586;2023-03-04T05:26:35;62662.88;;;4.05;100.00
7832;BME280;3961;42.058;25.586;2023-03-04T05:29:01;62683.88;;;4.21;100.00
7832;BME280;3961;42.058;25.586;2023-03-04T05:31:26;62690.06;;;4.31;100.00
7832;BME280;3961;42.058;25.586;2023-03-04T05:33:52;62670.09;;;4.09;100.00
7832;BME280;3961;42.058;25.586;2023-03-04T05:36:17;62659.69;;;4.04;100.00
7832;BME280;3961;42.058;25.586;2023-03-04T05:38:42;62681.25;;;4.21;100.00
7832;BME280;3961;42.058;25.586;2023-03-04T05:41:08;62668.38;;;4.08;100.00
7832;BME280;3961;42.058;25.586;2023-03-04T05:43:34;62669.53;;;4.09;100.00
7832;BME280;3961;42.058;25.586;2023-03-04T05:46:01;62648.56;;;3.92;100.00
7832;BME280;3961;42.058;25.586;2023-03-04T05:48:27;62666.09;;;4.05;100.00
7832;BME280;3961;42.058;25.586;2023-03-04T05:50:58;62652.66;;;3.91;100.00
7832;BME280;3961;42.058;25.586;2023-03-04T05:53:25;62628.44;;;3.79;100.00
7832;BME280;3961;42.058;25.586;2023-03-04T05:55:51;62635.47;;;3.76;100.00
7832;BME280;3961;42.058;25.586;2023-03-04T05:58:17;62603.06;;;3.50;100.00
7832;BME280;3961;42.058;25.586;2023-03-04T06:00:43;62639.66;;;3.87;100.00
7832;BME280;3961;42.058;25.586;2023-03-04T06:03:17;62635.63;;;3.83;100.00
7832;BME280;3961;42.058;25.586;2023-03-04T06:05:43;62653.16;;;3.96;100.00
7832;BME280;3961;42.058;25.586;2023-03-04T06:08:11;62695.22;;;4.36;100.00
7832;BME280;3961;42.058;25.586;2023-03-04T06:10:37;62719.63;;;4.55;100.00
7832;BME280;3961;42.058;25.586;2023-03-04T06:13:03;62736.84;;;4.70;100.00
7832;BME280;3961;42.058;25.586;2023-03-04T06:15:29;62758.41;;;4.87;100.00
7832;BME280;3961;42.058;25.586;2023-03-04T06:17:55;62755.56;;;4.85;100.00
7832;BME280;3961;42.058;25.586;2023-03-04T06:20:20;62754.16;;;4.81;100.00
7832;BME280;3961;42.058;25.586;2023-03-04T06:22:46;62729.16;;;4.61;100.00
7832;BME280;3961;42.058;25.586;2023-03-04T06:25:11;62700.72;;;4.38;100.00
7832;BME280;3961;42.058;25.586;2023-03-04T06:27:37;62682.94;;;4.23;100.00
7832;BME280;3961;42.058;25.586;2023-03-04T06:30:02;62733.75;;;4.65;100.00
7832;BME280;3961;42.058;25.586;2023-03-04T06:32:28;62729.72;;;4.62;100.00
7832;BME280;3961;42.058;25.586;2023-03-04T06:34:53;62745.47;;;4.78;100.00
7832;BME280;3961;42.058;25.586;2023-03-04T06:37:19;62721.34;;;4.57;100.00
7832;BME280;3961;42.058;25.586;2023-03-04T06:39:44;62727.50;;;4.55;100.00
7832;BME280;3961;42.058;25.586;2023-03-04T06:42:11;62697.28;;;4.35;100.00
7832;BME280;3961;42.058;25.586;2023-03-04T06:44:36;62663.47;;;4.05;100.00
7832;BME280;3961;42.058;25.586;2023-03-04T06:47:02;62656.34;;;3.97;100.00
7832;BME280;3961;42.058;25.586;2023-03-04T06:49:27;62689.00;;;4.26;100.00
7832;BME280;3961;42.058;25.586;2023-03-04T06:51:53;62694.16;;;4.30;100.00
7832;BME280;3961;42.058;25.586;2023-03-04T06:54:18;62708.75;;;4.46;100.00
7832;BME280;3961;42.058;25.586;2023-03-04T06:56:44;62742.50;;;4.80;100.00
7832;BME280;3961;42.058;25.586;2023-03-04T06:59:10;62755.78;;;4.87;100.00
7832;BME280;3961;42.058;25.586;2023-03-04T07:01:35;62778.72;;;5.07;100.00
7832;BME280;3961;42.058;25.586;2023-03-04T07:04:01;62784.81;;;5.11;100.00
7832;BME280;3961;42.058;25.586;2023-03-04T07:06:27;62795.38;;;5.22;100.00
7832;BME280;3961;42.058;25.586;2023-03-04T07:08:53;62729.06;;;4.66;100.00
7832;BME280;3961;42.058;25.586;2023-03-04T07:11:19;62768.16;;;4.96;100.00
7832;BME280;3961;42.058;25.586;2023-03-04T07:13:46;62780.13;;;5.11;100.00
7832;BME280;3961;42.058;25.586;2023-03-04T07:16:15;62806.84;;;5.32;100.00
7832;BME280;3961;42.058;25.586;2023-03-04T07:18:42;62796.28;;;5.21;100.00
7832;BME280;3961;42.058;25.586;2023-03-04T07:21:08;62838.09;;;5.62;100.00
7832;BME280;3961;42.058;25.586;2023-03-04T07:23:34;62826.13;;;5.47;100.00
7832;BME280;3961;42.058;25.586;2023-03-04T07:26:00;62835.22;;;5.60;100.00
7832;BME280;3961;42.058;25.586;2023-03-04T07:28:26;62857.13;;;5.74;100.00
7832;BME280;3961;42.058;25.586;2023-03-04T07:30:51;62862.56;;;5.82;100.00
7832;BME280;3961;42.058;25.586;2023-03-04T07:33:17;62872.22;;;5.95;100.00
7832;BME280;3961;42.058;25.586;2023-03-04T07:35:43;62886.69;;;6.03;100.00
7832;BME280;3961;42.058;25.586;2023-03-04T07:38:08;62880.94;;;5.98;100.00
7832;BME280;3961;42.058;25.586;2023-03-04T07:40:33;62906.22;;;6.20;100.00
7832;BME280;3961;42.058;25.586;2023-03-04T07:42:59;62933.56;;;6.42;100.00
7832;BME280;3961;42.058;25.586;2023-03-04T07:45:26;62941.50;;;6.54;100.00
7832;BME280;3961;42.058;25.586;2023-03-04T07:47:52;62929.53;;;6.38;100.00
7832;BME280;3961;42.058;25.586;2023-03-04T07:50:19;62896.47;;;6.12;100.00
7832;BME280;3961;42.058;25.586;2023-03-04T07:52:46;62929.88;;;6.36;100.00
7832;BME280;3961;42.058;25.586;2023-03-04T07:55:14;62945.28;;;6.55;100.00
7832;BME280;3961;42.058;25.586;2023-03-04T07:57:41;62934.72;;;6.43;100.00
7832;BME280;3961;42.058;25.586;2023-03-04T08:00:10;62923.69;;;6.38;100.00
7832;BME280;3961;42.058;25.586;2023-03-04T08:02:35;62938.16;;;6.46;100.00
7832;BME280;3961;42.058;25.586;2023-03-04T08:05:01;62939.31;;;6.47;100.00
7832;BME280;3961;42.058;25.586;2023-03-04T08:07:27;62939.31;;;6.47;100.00
7832;BME280;3961;42.058;25.586;2023-03-04T08:09:52;62970.03;;;6.77;100.00
7832;BME280;3961;42.058;25.586;2023-03-04T08:12:18;62976.69;;;6.80;100.00
7832;BME280;3961;42.058;25.586;2023-03-04T08:14:44;63020.38;;;7.19;100.00
7832;BME280;3961;42.058;25.586;2023-03-04T08:17:09;62973.47;;;6.80;100.00
7832;BME280;3961;42.058;25.586;2023-03-04T08:19:35;63020.28;;;7.23;100.00
7832;BME280;3961;42.058;25.586;2023-03-04T08:22:01;63016.13;;;7.13;100.00
7832;BME280;3961;42.058;25.586;2023-03-04T08:24:27;63008.31;;;7.08;100.00
7832;BME280;3961;42.058;25.586;2023-03-04T08:26:53;62978.63;;;6.84;100.00
7832;BME280;3961;42.058;25.586;2023-03-04T08:29:22;63008.81;;;7.13;100.00
7832;BME280;3961;42.058;25.586;2023-03-04T08:31:49;63030.97;;;7.30;100.00
7832;BME280;3961;42.058;25.586;2023-03-04T08:34:16;63063.19;;;7.59;100.00
7832;BME280;3961;42.058;25.586;2023-03-04T08:36:42;63089.69;;;7.82;100.00
7832;BME280;3961;42.058;25.586;2023-03-04T08:39:11;63106.97;;;7.97;100.00
7832;BME280;3961;42.058;25.586;2023-03-04T08:41:37;63131.47;;;8.17;100.00
7832;BME280;3961;42.058;25.586;2023-03-04T08:44:03;63161.78;;;8.41;100.00
7832;BME280;3961;42.058;25.586;2023-03-04T08:46:29;63179.31;;;8.59;100.00
7832;BME280;3961;42.058;25.586;2023-03-04T08:48:54;63192.56;;;8.70;100.00
7832;BME280;3961;42.058;25.586;2023-03-04T08:51:20;63199.13;;;8.79;100.00
7832;BME280;3961;42.058;25.586;2023-03-04T08:53:46;63202.00;;;8.81;100.00
7832;BME280;3961;42.058;25.586;2023-03-04T08:56:12;63243.63;;;9.13;100.00
7832;BME280;3961;42.058;25.586;2023-03-04T08:58:38;63251.00;;;9.24;100.00
7832;BME280;3961;42.058;25.586;2023-03-04T09:01:04;63221.84;;;9.01;100.00
7832;BME280;3961;42.058;25.586;2023-03-04T09:03:32;63214.13;;;8.92;100.00
7832;BME280;3961;42.058;25.586;2023-03-04T09:05:57;63235.91;;;9.16;100.00
7832;BME280;3961;42.058;25.586;2023-03-04T09:08:23;63281.91;;;9.49;100.00
7832;BME280;3961;42.058;25.586;2023-03-04T09:10:52;63298.06;;;9.63;100.00
7832;BME280;3961;42.058;25.586;2023-03-04T09:13:18;63340.53;;;9.98;100.00
7832;BME280;3961;42.058;25.586;2023-03-04T09:15:48;63354.84;;;10.16;100.00
7832;BME280;3961;42.058;25.586;2023-03-04T09:18:14;63395.63;;;10.49;100.00
7832;BME280;3961;42.058;25.586;2023-03-04T09:20:40;63414.94;;;10.68;100.00
7832;BME280;3961;42.058;25.586;2023-03-04T09:23:06;63413.19;;;10.67;100.00
7832;BME280;3961;42.058;25.586;2023-03-04T09:25:34;63433.75;;;10.83;100.00
7832;BME280;3961;42.058;25.586;2023-03-04T09:28:00;63516.03;;;11.57;100.00
7832;BME280;3961;42.058;25.586;2023-03-04T09:30:25;63608.72;;;12.34;100.00
7832;BME280;3961;42.058;25.586;2023-03-04T09:32:50;63639.63;;;12.63;100.00
7832;BME280;3961;42.058;25.586;2023-03-04T09:35:16;63637.91;;;12.62;100.00
7832;BME280;3961;42.058;25.586;2023-03-04T09:37:41;63634.41;;;12.59;100.00
7832;BME280;3961;42.058;25.586;2023-03-04T09:40:10;63656.66;;;12.81;100.00
7832;BME280;3961;42.058;25.586;2023-03-04T09:42:46;63653.63;;;12.71;100.00
7832;BME280;3961;42.058;25.586;2023-03-04T09:45:17;63610.34;;;12.40;100.00
7832;BME280;3961;42.058;25.586;2023-03-04T09:47:44;63597.72;;;12.24;100.00
7832;BME280;3961;42.058;25.586;2023-03-04T09:50:11;63589.28;;;12.19;100.00
7832;BME280;3961;42.058;25.586;2023-03-04T09:55:41;63564.88;;;12.02;100.00
7832;BME280;3961;42.058;25.586;2023-03-04T10:03:49;63599.13;;;12.28;100.00
7832;BME280;3961;42.058;25.586;2023-03-04T10:06:18;63642.16;;;12.68;100.00
7832;BME280;3961;42.058;25.586;2023-03-04T10:08:50;63638.25;;;12.60;100.00
7832;BME280;3961;42.058;25.586;2023-03-04T10:11:38;63687.09;;;13.05;100.00
7832;BME280;3961;42.058;25.586;2023-03-04T10:16:53;63640.22;;;12.64;98.54
7832;BME280;3961;42.058;25.586;2023-03-04T10:21:52;63671.72;;;12.94;97.93
7832;BME280;3961;42.058;25.586;2023-03-04T10:24:20;63666.84;;;12.87;100.00
7832;BME280;3961;42.058;25.586;2023-03-04T10:26:54;63685.34;;;13.03;99.02
7832;BME280;3961;42.058;25.586;2023-03-04T10:29:23;63698.94;;;13.18;99.61
7832;BME280;3961;42.058;25.586;2023-03-04T10:31:50;63745.06;;;13.56;98.31
7832;BME280;3961;42.058;25.586;2023-03-04T10:34:17;63775.19;;;13.82;96.12
7832;BME280;3961;42.058;25.586;2023-03-04T10:39:17;63805.91;;;14.09;95.53
7832;BME280;3961;42.058;25.586;2023-03-04T10:41:45;63815.53;;;14.15;93.12
7832;BME280;3961;42.058;25.586;2023-03-04T10:44:17;63776.34;;;13.83;91.77
7832;BME280;3961;42.058;25.586;2023-03-04T10:46:45;63741.34;;;13.50;94.72
7832;BME280;3961;42.058;25.586;2023-03-04T10:49:13;63722.09;;;13.38;94.98
7832;BME280;3961;42.058;25.586;2023-03-04T10:54:42;63745.63;;;13.56;92.94
7832;BME280;3961;42.058;25.586;2023-03-04T10:59:56;63754.09;;;13.61;95.24
7832;BME280;3961;42.058;25.586;2023-03-04T11:02:27;63815.75;;;14.18;96.02
7832;BME280;3961;42.058;25.586;2023-03-04T11:04:55;63847.44;;;14.43;94.32
7832;BME280;3961;42.058;25.586;2023-03-04T11:07:23;63823.06;;;14.22;92.59
7832;BME280;3961;42.058;25.586;2023-03-04T11:09:49;63835.25;;;14.32;90.88
7832;BME280;3961;42.058;25.586;2023-03-04T11:12:16;63832.00;;;14.32;89.86
7832;BME280;3961;42.058;25.586;2023-03-04T11:14:48;63834.88;;;14.34;90.51
7832;BME280;3961;42.058;25.586;2023-03-04T11:17:22;63823.88;;;14.25;91.62
7832;BME280;3961;42.058;25.586;2023-03-04T11:19:57;63828.88;;;14.27;91.75
7832;BME280;3961;42.058;25.586;2023-03-04T11:22:27;63816.34;;;14.18;93.59
7832;BME280;3961;42.058;25.586;2023-03-04T11:24:57;63868.78;;;14.66;94.91
7832;BME280;3961;42.058;25.586;2023-03-04T11:27:30;63892.94;;;14.85;96.52
7832;BME280;3961;42.058;25.586;2023-03-04T11:32:55;63862.19;;;14.58;95.73
7832;BME280;3961;42.058;25.586;2023-03-04T11:35:33;63859.88;;;14.56;95.24
7832;BME280;3961;42.058;25.586;2023-03-04T11:38:07;63832.13;;;14.27;95.04
7832;BME280;3961;42.058;25.586;2023-03-04T11:40:40;63805.66;;;14.06;96.16
7832;BME280;3961;42.058;25.586;2023-03-04T11:43:16;63799.28;;;14.01;95.42
7832;BME280;3961;42.058;25.586;2023-03-04T11:46:14;63804.75;;;14.08;94.85
7832;BME280;3961;42.058;25.586;2023-03-04T11:54:31;63686.41;;;13.09;99.17
7832;BME280;3961;42.058;25.586;2023-03-04T11:57:22;63693.47;;;13.10;98.77
7832;BME280;3961;42.058;25.586;2023-03-04T12:14:19;63727.91;;;13.43;98.34
7832;BME280;3961;42.058;25.586;2023-03-04T12:22:43;63712.63;;;13.27;98.15
7832;BME280;3961;42.058;25.586;2023-03-04T12:30:48;63870.28;;;14.65;94.52
7832;BME280;3961;42.058;25.586;2023-03-04T12:33:37;63903.16;;;14.92;93.39
7832;BME280;3961;42.058;25.586;2023-03-04T12:44:22;63827.22;;;14.32;94.15
7832;BME280;3961;42.058;25.586;2023-03-04T12:50:16;63824.22;;;14.23;93.05
7832;BME280;3961;42.058;25.586;2023-03-04T12:55:35;63817.63;;;14.15;95.59
7832;BME280;3961;42.058;25.586;2023-03-04T12:58:01;63799.75;;;14.06;93.29
7832;BME280;3961;42.058;25.586;2023-03-04T13:03:20;63838.94;;;14.38;93.85
7832;BME280;3961;42.058;25.586;2023-03-04T13:06:11;63850.81;;;14.51;92.90
7832;BME280;3961;42.058;25.586;2023-03-04T13:22:32;63788.88;;;13.92;94.25
7832;BME280;3961;42.058;25.586;2023-03-04T13:25:47;63843.94;;;14.40;92.69
7832;BME280;3961;42.058;25.586;2023-03-04T13:27:50;63867.38;;;14.63;90.52
7832;BME280;3961;42.058;25.586;2023-03-04T13:38:37;63827.38;;;14.28;93.50
7832;BME280;3961;42.058;25.586;2023-03-04T13:41:23;63811.13;;;14.13;95.17
7832;BME280;3961;42.058;25.586;2023-03-04T13:43:53;63789.09;;;13.94;93.82
7832;BME280;3961;42.058;25.586;2023-03-04T13:51:36;63778.19;;;13.80;94.41
7832;BME280;3961;42.058;25.586;2023-03-04T13:59:25;63743.31;;;13.54;98.51
7832;BME280;3961;42.058;25.586;2023-03-04T14:01:58;63709.13;;;13.24;100.00
7832;BME280;3961;42.058;25.586;2023-03-04T14:04:34;63722.22;;;13.33;100.00
7832;BME280;3961;42.058;25.586;2023-03-04T14:07:15;63706.00;;;13.19;100.00
7832;BME280;3961;42.058;25.586;2023-03-04T14:12:27;63723.84;;;13.39;100.00
7832;BME280;3961;42.058;25.586;2023-03-04T14:14:55;63716.44;;;13.28;100.00
7832;BME280;3961;42.058;25.586;2023-03-04T14:17:25;63689.06;;;13.09;100.00
7832;BME280;3961;42.058;25.586;2023-03-04T14:19:52;63712.63;;;13.27;100.00
7832;BME280;3961;42.058;25.586;2023-03-04T14:22:43;63733.47;;;13.45;100.00
7832;BME280;3961;42.058;25.586;2023-03-04T14:27:37;63756.63;;;13.66;100.00
7832;BME280;3961;42.058;25.586;2023-03-04T14:30:17;63768.00;;;13.73;100.00
7832;BME280;3961;42.058;25.586;2023-03-04T14:32:44;63757.22;;;13.66;100.00
7832;BME280;3961;42.058;25.586;2023-03-04T14:35:24;63714.13;;;13.26;100.00
7832;BME280;3961;42.058;25.586;2023-03-04T14:40:35;63716.44;;;13.28;100.00
7832;BME280;3961;42.058;25.586;2023-03-04T14:43:09;63704.00;;;13.15;100.00
7832;BME280;3961;42.058;25.586;2023-03-04T14:45:38;63699.03;;;13.13;100.00
7832;BME280;3961;42.058;25.586;2023-03-04T14:48:05;63700.53;;;13.12;100.00
7832;BME280;3961;42.058;25.586;2023-03-04T14:50:32;63696.72;;;13.11;100.00
7832;BME280;3961;42.058;25.586;2023-03-04T14:55:33;63696.38;;;13.13;100.00
7832;BME280;3961;42.058;25.586;2023-03-04T14:58:18;63702.53;;;13.16;100.00
7832;BME280;3961;42.058;25.586;2023-03-04T15:00:45;63689.75;;;13.05;100.00
7832;BME280;3961;42.058;25.586;2023-03-04T15:03:24;63700.44;;;13.17;100.00
7832;BME280;3961;42.058;25.586;2023-03-04T15:05:50;63687.31;;;13.07;100.00
7832;BME280;3961;42.058;25.586;2023-03-04T15:08:26;63681.66;;;12.98;100.00
7832;BME280;3961;42.058;25.586;2023-03-04T15:10:58;63645.41;;;12.68;100.00
7832;BME280;3961;42.058;25.586;2023-03-04T15:13:48;63674.38;;;12.94;100.00